Cordell Hull Observed Data For Previous 48 Hours

Caption
Day and Hour Reservoir Elevation (behind dam)* Tailwater Elevation (below dam)* Average Hourly Discharge*
11/11/2018 1 AM CST 502.01 451.11 8,470
11/11/2018 2 AM CST 502.06 450.36 8,310
11/11/2018 3 AM CST 502.14 449.84 8,205
11/11/2018 4 AM CST 501.98 451.48 17,100
11/11/2018 5 AM CST 501.99 451.79 17,220
11/11/2018 6 AM CST 501.80 454.00 27,420
11/11/2018 7 AM CST 501.74 454.84 27,960
11/11/2018 8 AM CST 501.64 455.24 28,260
11/11/2018 9 AM CST 501.54 455.54 28,500
11/11/2018 10 AM CST 501.43 455.83 28,800
11/11/2018 11 AM CST 501.34 456.04 29,025
11/11/2018 12 PM CST 501.51 454.31 18,520
11/11/2018 1 PM CST 501.76 451.96 8,690
11/11/2018 2 PM CST 501.76 450.96 8,490
11/11/2018 3 PM CST 501.79 450.39 8,370
11/11/2018 4 PM CST 501.91 449.91 8,250
11/11/2018 5 PM CST 501.96 449.46 8,175
11/11/2018 6 PM CST 502.03 449.13 8,115
11/11/2018 7 PM CST 502.09 448.89 8,060
11/11/2018 8 PM CST 501.99 450.79 16,820
11/11/2018 9 PM CST 501.77 453.87 27,360
11/11/2018 10 PM CST 501.71 454.21 27,600
11/11/2018 11 PM CST 501.64 454.84 28,020
11/12/2018 12 AM CST 501.81 453.11 17,850
11/12/2018 1 AM CST 502.01 450.81 8,410
11/12/2018 2 AM CST 502.04 450.14 8,270
11/12/2018 3 AM CST 502.09 449.69 8,190
11/12/2018 4 AM CST 501.95 451.35 17,060
11/12/2018 5 AM CST 501.98 451.58 17,140
11/12/2018 6 AM CST 501.72 453.82 27,360
11/12/2018 7 AM CST 501.72 454.62 27,840
11/12/2018 8 AM CST 501.63 455.13 28,200
11/12/2018 9 AM CST 501.51 455.51 28,500
11/12/2018 10 AM CST 501.39 455.69 28,725
11/12/2018 11 AM CST 501.29 455.89 28,950
11/12/2018 12 PM CST 501.54 454.14 18,440
11/12/2018 1 PM CST 501.66 451.76 8,670
11/12/2018 2 PM CST 501.70 450.80 8,470
11/12/2018 3 PM CST 501.72 450.22 8,350
11/12/2018 4 PM CST 501.84 449.74 8,235
11/12/2018 5 PM CST 501.72 451.52 17,220
11/12/2018 6 PM CST 501.44 453.94 27,600
11/12/2018 7 PM CST 501.38 454.78 28,140
11/12/2018 8 PM CST 501.27 455.27 28,500
11/12/2018 9 PM CST 501.44 453.54 18,240
11/12/2018 10 PM CST 501.70 451.30 8,570
11/12/2018 11 PM CST 501.63 450.43 8,410
11/13/2018 12 AM CST 501.68 449.88 8,290
11/13/2018 1 AM CST 501.75 449.55 8,220
11/13/2018 2 AM CST 501.81 449.11 8,145
11/13/2018 3 AM CST 501.84 448.94 8,115
11/13/2018 4 AM CST 501.94 448.74 8,060
11/13/2018 5 AM CST 501.99 448.59 8,020
11/13/2018 6 AM CST 501.87 450.57 16,780
11/13/2018 7 AM CST 501.92 451.22 17,020
11/13/2018 8 AM CST 501.73 453.53 24,980
11/13/2018 9 AM CST 501.57 454.57 27,900

Elevations are in feet above sea level. Discharges are in cubic feet per second and are reported at the end of the hour.